createdAt,value
2019-04-25T00:02:01.739Z,48.95
2019-04-25T00:10:16.762Z,48.73
2019-04-25T00:12:46.432Z,48.74
2019-04-25T00:18:05.635Z,48.85
2019-04-25T00:23:25.676Z,49.33
2019-04-25T00:26:13.882Z,49.11
2019-04-25T00:28:44.428Z,49.26
2019-04-25T00:34:04.765Z,50.17
2019-04-25T00:36:34.339Z,50.73
2019-04-25T00:41:59.908Z,51.50
2019-04-25T00:44:29.089Z,51.79
2019-04-25T00:46:58.355Z,52.17
2019-04-25T00:49:28.011Z,52.35
2019-04-25T00:51:57.200Z,52.55
2019-04-25T00:54:26.475Z,52.71
2019-04-25T00:56:55.663Z,53.05
2019-04-25T01:02:28.586Z,53.46
2019-04-25T01:04:58.171Z,53.82
2019-04-25T01:07:27.414Z,54.00
2019-04-25T01:09:56.921Z,54.04
2019-04-25T01:12:26.176Z,54.04
2019-04-25T01:14:55.731Z,54.08
2019-04-25T01:17:24.987Z,53.97
2019-04-25T01:19:56.960Z,54.06
2019-04-25T01:22:25.442Z,54.30
2019-04-25T01:24:55.777Z,54.37
2019-04-25T01:27:25.955Z,54.36
2019-04-25T01:29:55.563Z,54.50
2019-04-25T01:35:39.482Z,54.40
2019-04-25T01:38:28.331Z,54.74
2019-04-25T01:41:16.950Z,54.69
2019-04-25T01:46:25.729Z,54.21
2019-04-25T01:48:55.471Z,54.29
2019-04-25T01:51:24.709Z,54.34
2019-04-25T01:53:54.847Z,53.96
2019-04-25T01:56:25.001Z,53.88
2019-04-25T01:58:55.055Z,54.03
2019-04-25T02:01:25.467Z,54.33
2019-04-25T02:03:55.464Z,54.41
2019-04-25T02:06:26.100Z,54.64
2019-04-25T02:08:56.168Z,54.32
2019-04-25T02:11:45.479Z,54.42
2019-04-25T02:14:15.067Z,54.61
2019-04-25T02:16:44.331Z,54.58
2019-04-25T02:19:14.549Z,54.53
2019-04-25T02:22:04.090Z,54.66
2019-04-25T02:24:33.892Z,54.86
2019-04-25T02:27:04.738Z,55.29
2019-04-25T02:29:35.277Z,55.82
2019-04-25T02:32:08.797Z,56.28
2019-04-25T02:34:35.450Z,56.71
2019-04-25T02:39:40.983Z,56.53
2019-04-25T02:42:10.252Z,56.39
2019-04-25T02:47:50.627Z,56.78
2019-04-25T02:55:47.771Z,57.40
2019-04-25T02:58:16.953Z,57.62
2019-04-25T03:03:44.724Z,57.52
2019-04-25T03:06:14.985Z,57.45
2019-04-25T03:08:45.004Z,57.26
2019-04-25T03:11:15.654Z,56.90
2019-04-25T03:13:44.912Z,56.91
2019-04-25T03:16:14.272Z,56.67
2019-04-25T03:19:24.587Z,56.72
2019-04-25T03:24:30.722Z,56.58
2019-04-25T03:27:00.857Z,56.32
2019-04-25T03:29:31.313Z,55.89
2019-04-25T03:32:00.935Z,55.59
2019-04-25T03:34:34.915Z,55.51
2019-04-25T03:37:05.015Z,55.59
2019-04-25T03:39:33.871Z,55.67
2019-04-25T03:42:05.015Z,55.78
2019-04-25T03:44:34.410Z,55.90
2019-04-25T03:47:06.143Z,56.15
2019-04-25T03:49:34.594Z,56.37
2019-04-25T03:52:05.243Z,56.50
2019-04-25T03:54:34.754Z,56.34
2019-04-25T03:57:05.211Z,56.32
2019-04-25T03:59:34.942Z,56.47
2019-04-25T04:02:05.915Z,56.66
2019-04-25T04:04:35.501Z,56.67
2019-04-25T04:07:07.416Z,56.76
2019-04-25T04:09:36.075Z,56.58
2019-04-25T04:12:06.330Z,56.63
2019-04-25T04:14:36.174Z,56.71
2019-04-25T04:17:24.371Z,56.77
2019-04-25T04:20:14.699Z,56.77
2019-04-25T04:25:38.165Z,56.82
2019-04-25T04:28:07.775Z,56.97
2019-04-25T04:30:36.971Z,57.07
2019-04-25T04:33:06.935Z,57.12
2019-04-25T04:35:37.823Z,57.31
2019-04-25T04:38:08.082Z,57.33
2019-04-25T04:40:37.997Z,57.45
2019-04-25T04:45:45.000Z,57.33
2019-04-25T04:48:14.609Z,57.27
2019-04-25T04:50:43.710Z,57.19
2019-04-25T04:53:14.604Z,56.95
2019-04-25T04:55:43.876Z,56.66
2019-04-25T04:58:14.990Z,56.50
2019-04-25T05:00:44.776Z,56.06
2019-04-25T05:06:15.041Z,56.04
2019-04-25T05:08:50.428Z,55.82
2019-04-25T05:11:19.911Z,55.66
2019-04-25T05:13:50.610Z,54.81
2019-04-25T05:16:19.906Z,54.82
2019-04-25T05:18:49.936Z,54.30
2019-04-25T05:21:19.118Z,54.24
2019-04-25T05:23:48.383Z,53.85
2019-04-25T05:26:18.790Z,52.84
2019-04-25T05:28:48.909Z,51.67
2019-04-25T05:34:16.781Z,50.49
2019-04-25T05:36:45.599Z,50.46
2019-04-25T05:39:16.723Z,50.44
2019-04-25T05:42:07.504Z,50.27
2019-04-25T05:44:35.679Z,49.95
2019-04-25T05:47:04.872Z,50.13
2019-04-25T05:49:34.339Z,49.69
2019-04-25T05:52:04.054Z,49.33
2019-04-25T05:54:34.568Z,49.24
2019-04-25T05:57:03.820Z,48.43
2019-04-25T05:59:33.723Z,48.27
2019-04-25T06:02:04.016Z,47.96
2019-04-25T06:04:33.624Z,47.52
2019-04-25T06:07:05.673Z,46.49
2019-04-25T06:09:54.730Z,46.09
2019-04-25T06:13:04.748Z,45.62
2019-04-25T06:18:33.867Z,44.50
2019-04-25T06:23:59.639Z,43.19
2019-04-25T06:26:35.147Z,42.69
2019-04-25T06:29:00.270Z,42.18
2019-04-25T06:31:29.921Z,41.85
2019-04-25T06:33:59.110Z,41.65
2019-04-25T06:36:29.067Z,40.93
2019-04-25T06:38:59.313Z,40.26
2019-04-25T06:41:28.946Z,39.97
2019-04-25T06:47:06.967Z,39.59
2019-04-25T06:49:37.723Z,39.62
2019-04-25T06:52:06.989Z,39.21
2019-04-25T06:54:36.212Z,38.90
2019-04-25T06:57:05.474Z,38.38
2019-04-25T06:59:37.807Z,37.44
2019-04-25T07:02:05.590Z,37.25
2019-04-25T07:04:34.921Z,37.02
2019-04-25T07:07:10.454Z,36.53
2019-04-25T07:09:36.087Z,35.47
2019-04-25T07:12:06.021Z,34.96
2019-04-25T07:14:36.843Z,34.99
2019-04-25T07:17:06.965Z,34.91
2019-04-25T07:19:36.339Z,34.71
2019-04-25T07:22:25.657Z,34.67
2019-04-25T07:24:55.857Z,34.67
2019-04-25T07:27:44.758Z,34.93
2019-04-25T07:30:54.895Z,34.35
2019-04-25T07:36:17.354Z,34.48
2019-04-25T07:38:46.539Z,33.84
2019-04-25T07:41:16.453Z,35.85
2019-04-25T07:43:45.665Z,36.63
2019-04-25T07:46:15.027Z,35.66
2019-04-25T07:48:44.210Z,34.83
2019-04-25T07:51:16.364Z,34.53
2019-04-25T07:53:44.419Z,32.90
2019-04-25T07:56:14.215Z,32.46
2019-04-25T07:58:50.592Z,32.24
2019-04-25T08:01:55.235Z,31.37
2019-04-25T08:04:24.411Z,31.80
2019-04-25T08:06:54.295Z,30.05
2019-04-25T08:09:25.234Z,29.61
2019-04-25T08:11:55.036Z,29.61
2019-04-25T08:14:43.722Z,30.25
2019-04-25T08:20:48.883Z,30.50
2019-04-25T08:23:57.451Z,30.85
2019-04-25T08:26:26.718Z,30.70
2019-04-25T08:28:57.824Z,30.21
2019-04-25T08:31:26.969Z,30.00
2019-04-25T08:33:56.150Z,29.36
2019-04-25T08:36:25.757Z,29.43
2019-04-25T08:38:54.934Z,29.29
2019-04-25T08:41:24.554Z,28.74
2019-04-25T08:43:54.454Z,28.88
2019-04-25T08:46:25.278Z,28.97
2019-04-25T08:49:14.560Z,28.89
2019-04-25T09:00:00.310Z,27.89
2019-04-25T09:05:53.581Z,28.13
2019-04-25T09:08:24.325Z,28.51
2019-04-25T09:10:53.567Z,28.36
2019-04-25T09:13:23.402Z,28.43
2019-04-25T09:15:54.093Z,28.37
2019-04-25T09:18:24.769Z,28.33
2019-04-25T09:21:01.249Z,27.78
2019-04-25T09:23:49.927Z,28.18
2019-04-25T09:26:19.107Z,28.14
2019-04-25T09:28:48.443Z,28.10
2019-04-25T09:31:17.619Z,27.28
2019-04-25T09:33:46.959Z,27.29
2019-04-25T09:36:16.505Z,27.65
2019-04-25T09:38:48.492Z,27.26
2019-04-25T09:41:16.713Z,26.90
2019-04-25T09:43:46.880Z,27.25
2019-04-25T09:49:16.229Z,27.15
2019-04-25T09:52:04.341Z,27.43
2019-04-25T09:54:53.519Z,27.19
2019-04-25T10:01:09.166Z,27.10
2019-04-25T10:06:28.243Z,26.52
2019-04-25T10:08:57.426Z,25.62
2019-04-25T10:11:26.685Z,25.49
2019-04-25T10:14:38.869Z,25.42
2019-04-25T10:17:08.996Z,26.08
2019-04-25T10:19:39.077Z,25.70
2019-04-25T10:22:09.174Z,25.90
2019-04-25T10:24:39.641Z,25.55
2019-04-25T10:30:26.025Z,25.22
2019-04-25T10:32:55.214Z,25.19
2019-04-25T10:39:06.874Z,22.79
2019-04-25T10:41:30.222Z,22.53
2019-04-25T10:43:59.422Z,22.27
2019-04-25T10:46:28.703Z,22.11
2019-04-25T10:48:57.877Z,21.35
2019-04-25T10:51:27.354Z,21.69
2019-04-25T10:53:57.369Z,22.01
2019-04-25T10:56:26.545Z,21.51
2019-04-25T10:58:55.818Z,21.75
2019-04-25T11:01:45.042Z,21.81
2019-04-25T11:06:58.677Z,21.50
2019-04-25T11:12:47.223Z,22.16
2019-04-25T11:15:16.371Z,22.40
2019-04-25T11:17:46.676Z,21.95
2019-04-25T11:20:36.146Z,21.61
2019-04-25T11:23:05.791Z,21.52
2019-04-25T11:25:34.973Z,21.72
2019-04-25T11:28:45.280Z,21.66
2019-04-25T11:31:20.877Z,21.90
2019-04-25T11:33:50.929Z,21.29
2019-04-25T11:36:21.035Z,21.42
2019-04-25T11:39:09.242Z,21.39
2019-04-25T11:41:38.742Z,21.30
2019-04-25T11:44:08.010Z,20.75
2019-04-25T11:46:39.328Z,20.62
2019-04-25T11:49:08.349Z,20.05
2019-04-25T11:51:37.531Z,20.04
2019-04-25T11:54:46.876Z,19.86
2019-04-25T11:57:17.078Z,19.72
2019-04-25T11:59:48.907Z,19.70
2019-04-25T12:02:17.452Z,19.60
2019-04-25T12:04:47.763Z,19.21
2019-04-25T12:07:17.804Z,19.42
2019-04-25T12:09:48.046Z,19.21
2019-04-25T12:12:17.964Z,18.85
2019-04-25T12:14:47.603Z,19.08
2019-04-25T12:20:26.842Z,18.37
2019-04-25T12:23:06.015Z,18.27
2019-04-25T12:25:27.000Z,18.20
2019-04-25T12:27:56.180Z,18.17
2019-04-25T12:30:37.426Z,18.35
2019-04-25T12:32:56.939Z,18.38
2019-04-25T12:35:27.402Z,18.39
2019-04-25T12:37:56.587Z,18.33
2019-04-25T12:40:25.843Z,18.46
2019-04-25T12:42:55.021Z,18.61
2019-04-25T12:45:43.442Z,18.40
2019-04-25T12:51:03.317Z,18.87
2019-04-25T12:53:33.452Z,18.91
2019-04-25T12:56:04.358Z,18.93
2019-04-25T13:01:09.866Z,19.07
2019-04-25T13:03:39.451Z,18.80
2019-04-25T13:06:08.630Z,18.60
2019-04-25T13:08:37.897Z,18.38
2019-04-25T13:11:10.225Z,18.69
2019-04-25T13:13:38.381Z,18.60
2019-04-25T13:16:08.078Z,18.78
2019-04-25T13:18:37.638Z,18.81
2019-04-25T13:21:07.741Z,18.72
2019-04-25T13:23:38.228Z,18.82
2019-04-25T13:26:07.409Z,18.85
2019-04-25T13:29:16.409Z,18.64
2019-04-25T13:32:25.309Z,18.66
2019-04-25T13:37:34.411Z,18.84
2019-04-25T13:43:00.050Z,18.92
2019-04-25T13:48:26.582Z,19.15
2019-04-25T13:50:56.458Z,19.33
2019-04-25T13:56:38.997Z,19.47
2019-04-25T14:09:48.176Z,19.70
2019-04-25T14:12:17.353Z,19.79
2019-04-25T14:14:46.607Z,19.64
2019-04-25T14:17:35.703Z,19.63
2019-04-25T14:20:25.274Z,19.59
2019-04-25T14:22:55.929Z,19.56
2019-04-25T14:28:02.152Z,19.46
2019-04-25T14:30:32.609Z,19.58
2019-04-25T14:33:03.564Z,19.69
2019-04-25T14:35:34.046Z,19.89
2019-04-25T14:38:03.872Z,20.17
2019-04-25T14:40:34.720Z,19.94
2019-04-25T14:45:56.010Z,19.87
2019-04-25T14:48:25.108Z,19.90
2019-04-25T14:56:28.034Z,20.16
2019-04-25T14:58:57.582Z,20.23
2019-04-25T15:01:28.035Z,20.40
2019-04-25T15:03:58.093Z,20.16
2019-04-25T15:06:27.714Z,20.37
2019-04-25T15:08:56.919Z,20.40
2019-04-25T15:11:26.952Z,20.52
2019-04-25T15:13:57.082Z,20.48
2019-04-25T15:16:27.075Z,20.31
2019-04-25T15:18:57.812Z,20.07
2019-04-25T15:21:27.603Z,19.80
2019-04-25T15:24:00.292Z,19.59
2019-04-25T15:26:29.047Z,19.64
2019-04-25T15:28:58.340Z,19.35
2019-04-25T15:34:17.422Z,19.17
2019-04-25T15:39:59.907Z,18.37
2019-04-25T15:42:48.018Z,18.40
2019-04-25T15:45:36.488Z,18.47
2019-04-25T15:50:56.586Z,17.31
2019-04-25T15:53:26.075Z,16.43
2019-04-25T15:55:55.416Z,15.29
2019-04-25T15:58:25.320Z,13.98
2019-04-25T16:03:35.370Z,12.69
2019-04-25T16:06:04.993Z,12.04
2019-04-25T16:08:35.053Z,11.87
2019-04-25T16:11:05.648Z,11.44
2019-04-25T16:13:34.831Z,11.34
2019-04-25T16:16:04.179Z,11.11
2019-04-25T16:18:33.363Z,10.70
2019-04-25T16:21:02.685Z,10.69
2019-04-25T16:23:32.216Z,10.85
2019-04-25T16:28:39.692Z,11.07
2019-04-25T16:33:48.457Z,11.07
2019-04-25T16:36:18.113Z,10.98
2019-04-25T16:38:47.302Z,11.04
2019-04-25T16:41:16.477Z,11.05
2019-04-25T16:49:00.227Z,12.57
2019-04-25T16:51:29.418Z,13.12
2019-04-25T16:53:58.667Z,13.21
2019-04-25T16:56:46.838Z,13.55
2019-04-25T16:59:16.090Z,13.62
2019-04-25T17:01:45.447Z,14.15
2019-04-25T17:04:15.554Z,15.71
2019-04-25T17:06:45.026Z,17.56
2019-04-25T17:09:14.732Z,18.92
2019-04-25T17:11:44.237Z,19.85
2019-04-25T17:14:32.749Z,20.72
2019-04-25T17:17:20.920Z,21.29
2019-04-25T17:20:09.389Z,21.68
2019-04-25T17:25:28.834Z,22.69
2019-04-25T17:28:00.635Z,23.14
2019-04-25T17:33:38.997Z,23.77
2019-04-25T17:36:13.158Z,23.98
2019-04-25T17:41:32.133Z,24.45
2019-04-25T17:44:02.621Z,24.63
2019-04-25T17:46:32.699Z,24.80
2019-04-25T17:51:39.483Z,25.02
2019-04-25T17:54:09.916Z,25.05
2019-04-25T17:56:39.103Z,25.32
2019-04-25T17:59:08.720Z,25.54
2019-04-25T18:01:38.011Z,25.67
2019-04-25T18:04:07.352Z,25.75
2019-04-25T18:06:37.674Z,25.90
2019-04-25T18:09:08.276Z,26.08
2019-04-25T18:11:38.117Z,26.23
2019-04-25T18:14:07.907Z,26.37
2019-04-25T18:19:49.028Z,26.61
2019-04-25T18:22:37.416Z,26.72
2019-04-25T18:25:25.712Z,26.85
2019-04-25T18:28:13.814Z,27.06
2019-04-25T18:33:31.653Z,27.28
2019-04-25T18:44:14.317Z,27.68
2019-04-25T18:49:20.561Z,27.85
2019-04-25T18:57:34.146Z,28.10
2019-04-25T19:00:22.795Z,28.19
2019-04-25T19:03:22.076Z,28.27
2019-04-25T19:08:26.936Z,28.22
2019-04-25T19:10:56.664Z,28.43
2019-04-25T19:13:25.838Z,28.58
2019-04-25T19:15:55.148Z,28.75
2019-04-25T19:18:24.414Z,28.79
2019-04-25T19:20:53.610Z,28.73
2019-04-25T19:23:22.910Z,28.72
2019-04-25T19:25:52.243Z,28.87
2019-04-25T19:28:21.482Z,28.82
2019-04-25T19:30:51.409Z,28.85
2019-04-25T19:35:59.750Z,29.04
2019-04-25T19:38:29.010Z,29.09
2019-04-25T19:41:17.132Z,29.09
2019-04-25T19:46:44.934Z,29.22
2019-04-25T19:49:14.278Z,29.20
2019-04-25T19:51:43.470Z,29.21
2019-04-25T19:54:12.739Z,29.32
2019-04-25T19:56:42.672Z,29.27
2019-04-25T19:59:13.214Z,29.18
2019-04-25T20:01:42.650Z,29.26
2019-04-25T20:04:32.658Z,29.26
2019-04-25T20:07:20.780Z,29.17
2019-04-25T20:10:08.980Z,29.38
2019-04-25T20:12:51.629Z,29.36
2019-04-25T20:15:19.937Z,29.27
2019-04-25T20:17:49.815Z,29.32
2019-04-25T20:20:20.429Z,29.45
2019-04-25T20:22:50.281Z,29.50
2019-04-25T20:25:21.282Z,29.50
2019-04-25T20:27:50.759Z,29.45
2019-04-25T20:30:23.532Z,29.50
2019-04-25T20:32:53.559Z,29.60
2019-04-25T20:35:43.384Z,29.71
2019-04-25T20:38:13.074Z,29.73
2019-04-25T20:40:42.677Z,29.85
2019-04-25T20:43:12.185Z,29.83
2019-04-25T20:46:21.109Z,29.97
2019-04-25T20:48:50.294Z,30.03
2019-04-25T20:51:19.548Z,30.11
2019-04-25T20:53:48.917Z,30.13
2019-04-25T20:56:18.182Z,30.27
2019-04-25T20:58:47.847Z,30.41
2019-04-25T21:01:18.625Z,30.39
2019-04-25T21:03:48.668Z,30.36
2019-04-25T21:09:02.427Z,30.52
2019-04-25T21:11:31.627Z,30.51
2019-04-25T21:14:19.879Z,30.51
2019-04-25T21:17:07.996Z,30.56
2019-04-25T21:19:41.202Z,30.59
2019-04-25T21:22:29.620Z,30.66
2019-04-25T21:24:59.287Z,30.74
2019-04-25T21:27:28.466Z,30.63
2019-04-25T21:29:57.829Z,30.77
2019-04-25T21:32:26.966Z,30.69
2019-04-25T21:34:57.978Z,30.67
2019-04-25T21:37:27.806Z,30.77
2019-04-25T21:40:16.809Z,30.90
2019-04-25T21:42:51.615Z,30.91
2019-04-25T21:45:21.857Z,31.08
2019-04-25T21:47:51.214Z,30.95
2019-04-25T21:50:22.471Z,30.93
2019-04-25T21:52:52.704Z,30.98
2019-04-25T21:55:22.827Z,30.92
2019-04-25T21:57:52.267Z,30.87
2019-04-25T22:00:42.205Z,30.88
2019-04-25T22:05:46.591Z,30.80
2019-04-25T22:08:15.866Z,30.75
2019-04-25T22:10:45.051Z,30.73
2019-04-25T22:13:16.811Z,30.89
2019-04-25T22:15:45.638Z,30.85
2019-04-25T22:18:16.765Z,30.89
2019-04-25T22:21:37.253Z,31.02
2019-04-25T22:24:06.231Z,31.12
2019-04-25T22:26:27.517Z,31.21
2019-04-25T22:28:59.093Z,31.29
2019-04-25T22:34:51.705Z,31.31
2019-04-25T22:37:12.426Z,31.40
2019-04-25T22:39:43.327Z,31.45
2019-04-25T22:42:12.617Z,31.44
2019-04-25T22:44:43.529Z,31.54
2019-04-25T22:47:12.822Z,31.53
2019-04-25T22:49:42.074Z,31.70
2019-04-25T22:52:12.980Z,31.76
2019-04-25T22:54:42.659Z,31.74
2019-04-25T22:57:13.958Z,31.82
2019-04-25T22:59:45.414Z,31.86
2019-04-25T23:05:33.560Z,31.99
2019-04-25T23:08:04.477Z,32.01
2019-04-25T23:10:33.746Z,31.94
2019-04-25T23:13:03.327Z,31.99
2019-04-25T23:15:33.977Z,31.91
2019-04-25T23:21:12.490Z,32.11
2019-04-25T23:24:00.757Z,31.99
2019-04-25T23:26:49.153Z,32.15
2019-04-25T23:29:18.334Z,32.27
2019-04-25T23:31:47.660Z,32.44
2019-04-25T23:34:17.765Z,32.71
2019-04-25T23:36:47.341Z,32.77
2019-04-25T23:39:16.532Z,32.82
2019-04-25T23:41:45.801Z,32.75
2019-04-25T23:44:14.984Z,32.82
2019-04-25T23:49:21.005Z,32.68
2019-04-25T23:54:27.702Z,32.50
2019-04-25T23:56:57.474Z,32.29
2019-04-25T23:59:26.729Z,32.25
